Terminal Aerodrome Forecast
Issued by NWS Louisville, KY

Home | Current Version | Previous Version | Text Only | Print | Product List | Glossary On
Versions: 1 2 3 4 5 6 7 8 9 10 11 12 13 14 15 16 17 18 19
000
FTUS43 KLMK 282000 AAA
TAFLEX
TAF AMD
KLEX 282013Z 2820/2918 34005KT 3SM BR OVC004
     FM290000 36006KT P6SM OVC007
     FM290900 02005KT P6SM BKN015=

USA.gov is the U.S. government's official web portal to all federal, state and local government web resources and services.